Time;durP1;ratioP1;P1;durP2;ratioP2;P2;SDS_P1;SDS_P2;PMS_P1;PMS_P2;Temp;Humidity;BMP_temperature;BMP_pressure;BME280_temperature;BME280_humidity;BME280_pressure;Samples;Min_cycle;Max_cycle;Signal;HPM_P1;HPM_P2
2022/03/23 00:01:55;;;;;;;32.97;8.30;;;;;;;4.48;100.00;99225.00;4983654;28;20687;-54
2022/03/23 00:04:21;;;;;;;42.78;10.10;;;;;;;3.86;100.00;99217.00;4984859;28;20076;-54
2022/03/23 00:06:46;;;;;;;24.75;6.53;;;;;;;4.04;100.00;99221.38;4982205;28;20038;-55
2022/03/23 00:09:15;;;;;;;32.15;7.45;;;;;;;3.90;100.00;99225.59;4982558;28;20030;-56
2022/03/23 00:11:41;;;;;;;29.67;8.07;;;;;;;3.59;100.00;99218.56;4982304;28;20104;-54
2022/03/23 00:14:09;;;;;;;29.88;6.03;;;;;;;4.97;100.00;99230.28;4983337;28;20030;-55
2022/03/23 00:16:36;;;;;;;30.63;8.45;;;;;;;4.36;100.00;99223.25;4982421;28;20074;-56
2022/03/23 00:19:03;;;;;;;34.05;8.20;;;;;;;3.33;100.00;99220.06;4983600;28;20026;-54
2022/03/23 00:21:28;;;;;;;29.75;8.85;;;;;;;3.39;100.00;99223.56;4980418;28;20689;-56
2022/03/23 00:23:54;;;;;;;35.95;9.23;;;;;;;2.96;100.00;99214.63;4982478;28;20092;-55
2022/03/23 00:26:19;;;;;;;42.47;10.13;;;;;;;3.43;100.00;99219.31;4981231;28;20077;-56
2022/03/23 00:28:45;;;;;;;33.25;10.10;;;;;;;2.48;100.00;99207.28;4982499;28;20110;-59
2022/03/23 00:31:10;;;;;;;35.78;9.45;;;;;;;3.02;100.00;99217.25;4981682;28;20041;-56
2022/03/23 00:33:36;;;;;;;34.17;8.00;;;;;;;3.64;100.00;99213.44;4981951;28;20079;-55
2022/03/23 00:36:02;;;;;;;27.75;7.68;;;;;;;3.51;100.00;99220.25;4977450;28;20104;-56
2022/03/23 00:38:28;;;;;;;35.40;10.18;;;;;;;2.57;100.00;99218.53;4980930;28;20658;-57
2022/03/23 00:40:53;;;;;;;33.90;10.02;;;;;;;2.66;100.00;99221.19;4983621;28;20042;-57
2022/03/23 00:43:18;;;;;;;41.97;10.63;;;;;;;3.47;100.00;99223.63;4984530;28;20572;-55
2022/03/23 00:45:44;;;;;;;40.47;10.57;;;;;;;2.63;100.00;99219.47;4982166;28;20637;-56
2022/03/23 00:48:10;;;;;;;37.20;8.93;;;;;;;2.94;100.00;99221.47;4984306;28;20104;-55
2022/03/23 00:50:35;;;;;;;38.05;10.32;;;;;;;2.95;100.00;99223.22;4984404;28;20037;-56
2022/03/23 00:53:01;;;;;;;32.40;8.30;;;;;;;2.91;100.00;99221.47;4981751;28;20023;-56
2022/03/23 00:55:26;;;;;;;45.33;11.90;;;;;;;2.58;100.00;99218.56;4979726;28;20043;-55
2022/03/23 00:57:52;;;;;;;42.35;11.02;;;;;;;2.42;100.00;99212.34;4981840;28;20471;-56
2022/03/23 01:00:20;;;;;;;35.63;10.38;;;;;;;2.43;100.00;99219.25;4981128;28;20027;-55
2022/03/23 01:02:46;;;;;;;31.80;6.47;;;;;;;4.18;100.00;99218.88;4980301;28;20033;-57
2022/03/23 01:05:13;;;;;;;38.97;9.70;;;;;;;3.27;100.00;99211.47;4977628;28;20022;-56
2022/03/23 01:07:40;;;;;;;42.00;10.85;;;;;;;2.65;100.00;99222.94;4979091;28;20077;-56
2022/03/23 01:10:07;;;;;;;35.92;9.32;;;;;;;2.76;100.00;99220.47;4979122;28;20058;-57
2022/03/23 01:12:33;;;;;;;34.05;8.02;;;;;;;3.36;100.00;99220.09;4977515;28;20026;-56
2022/03/23 01:14:58;;;;;;;32.80;7.45;;;;;;;3.15;100.00;99215.66;4983531;28;20034;-56
2022/03/23 01:17:24;;;;;;;30.25;6.38;;;;;;;4.23;100.00;99219.78;4983595;28;20048;-55
2022/03/23 01:19:50;;;;;;;28.00;6.85;;;;;;;3.67;100.00;99216.88;4981928;28;20030;-55
2022/03/23 01:22:16;;;;;;;30.40;7.55;;;;;;;3.31;100.00;99217.50;4978310;28;20573;-57
2022/03/23 01:24:42;;;;;;;36.58;7.15;;;;;;;3.76;100.00;99220.38;4980310;28;20396;-55
2022/03/23 01:27:08;;;;;;;34.85;9.05;;;;;;;2.57;100.00;99215.94;4978914;28;20439;-56
2022/03/23 01:29:34;;;;;;;23.85;5.72;;;;;;;3.81;100.00;99218.69;4979170;28;20033;-54
2022/03/23 01:31:59;;;;;;;29.08;8.40;;;;;;;3.47;100.00;99215.88;4976936;28;20117;-55
2022/03/23 01:34:25;;;;;;;28.48;6.10;;;;;;;4.11;100.00;99209.38;4979459;28;20500;-57
2022/03/23 01:36:50;;;;;;;27.90;7.32;;;;;;;3.31;100.00;99211.47;4976484;28;20048;-54
2022/03/23 01:39:15;;;;;;;28.13;6.07;;;;;;;3.79;100.00;99208.38;4980437;28;20054;-56
2022/03/23 01:41:41;;;;;;;38.13;10.23;;;;;;;3.29;100.00;99211.47;4980590;28;20042;-57
2022/03/23 01:44:19;;;;;;;32.45;7.82;;;;;;;3.13;100.00;99218.22;4981107;28;20058;-53
2022/03/23 01:47:03;;;;;;;29.55;6.82;;;;;;;3.60;100.00;99220.31;4971581;28;20046;-55
2022/03/23 01:49:30;;;;;;;25.35;6.13;;;;;;;3.09;100.00;99216.47;4980355;28;20069;-55
2022/03/23 01:51:56;;;;;;;32.15;7.82;;;;;;;2.73;100.00;99219.56;4979920;28;20177;-55
2022/03/23 01:54:21;;;;;;;31.83;8.75;;;;;;;2.49;100.00;99211.56;4984263;28;20042;-54
2022/03/23 01:56:48;;;;;;;27.77;6.57;;;;;;;2.86;100.00;99219.69;4982962;28;20041;-54
2022/03/23 01:59:15;;;;;;;27.13;6.47;;;;;;;3.22;100.00;99213.13;4979386;28;20117;-55
2022/03/23 02:01:41;;;;;;;30.15;8.30;;;;;;;2.92;100.00;99215.44;4983337;28;20783;-54
2022/03/23 02:04:06;;;;;;;36.42;9.70;;;;;;;2.03;100.00;99218.75;4985151;28;20104;-56
2022/03/23 02:06:32;;;;;;;37.17;9.63;;;;;;;2.48;100.00;99217.59;4977626;28;20034;-55
2022/03/23 02:08:58;;;;;;;36.42;9.57;;;;;;;2.49;100.00;99218.44;4985366;28;20137;-54
2022/03/23 02:11:24;;;;;;;29.80;6.95;;;;;;;2.47;100.00;99221.00;4978407;28;20039;-55
2022/03/23 02:13:50;;;;;;;25.80;5.95;;;;;;;3.38;100.00;99213.25;4984049;28;20022;-55
2022/03/23 02:16:15;;;;;;;41.65;10.07;;;;;;;2.73;100.00;99206.69;4978562;28;20046;-55
2022/03/23 02:18:40;;;;;;;31.13;8.27;;;;;;;1.78;100.00;99221.84;4979717;28;20023;-56
2022/03/23 02:21:06;;;;;;;46.90;10.30;;;;;;;1.90;100.00;99214.31;4984204;28;20124;-53
2022/03/23 02:23:31;;;;;;;34.03;7.88;;;;;;;2.86;100.00;99214.53;4978855;28;20031;-55
2022/03/23 02:26:01;;;;;;;36.30;6.85;;;;;;;3.83;100.00;99202.34;4980620;28;20472;-55
2022/03/23 02:28:27;;;;;;;36.00;8.70;;;;;;;1.93;100.00;99211.78;4985776;28;20033;-56
2022/03/23 02:30:53;;;;;;;32.00;8.77;;;;;;;2.13;100.00;99217.16;4986407;28;20030;-54
2022/03/23 02:33:20;;;;;;;35.78;6.40;;;;;;;3.60;100.00;99211.66;4986141;28;20037;-56
2022/03/23 02:35:45;;;;;;;34.15;8.45;;;;;;;2.30;100.00;99213.09;4985876;28;20130;-56
2022/03/23 02:38:11;;;;;;;32.58;7.18;;;;;;;2.85;100.00;99211.97;4986372;28;20121;-53
2022/03/23 02:40:36;;;;;;;47.80;11.05;;;;;;;1.84;100.00;99221.94;4981652;28;20116;-54
2022/03/23 02:43:02;;;;;;;31.70;8.70;;;;;;;3.02;100.00;99212.09;4982714;28;20034;-54
2022/03/23 02:45:28;;;;;;;30.65;6.97;;;;;;;3.29;100.00;99208.91;4983866;28;20036;-55
2022/03/23 02:47:53;;;;;;;32.92;8.20;;;;;;;2.96;100.00;99219.78;4983887;28;20023;-54
2022/03/23 02:50:18;;;;;;;33.67;6.93;;;;;;;3.22;100.00;99218.28;4981991;28;20030;-54
2022/03/23 03:01:52;;;;;;;23.45;6.70;;;;;;;2.98;100.00;99215.47;4985449;28;20026;-57
2022/03/23 03:04:10;;;;;;;34.93;7.27;;;;;;;2.81;100.00;99220.50;4980452;28;20064;-56
2022/03/23 03:06:35;;;;;;;34.78;7.25;;;;;;;2.76;100.00;99217.88;4981790;28;20997;-56
2022/03/23 03:09:01;;;;;;;29.58;5.70;;;;;;;2.75;100.00;99218.72;4986747;28;20759;-54
2022/03/23 03:11:26;;;;;;;35.25;9.50;;;;;;;2.31;100.00;99219.97;4984649;28;20046;-56
2022/03/23 03:13:51;;;;;;;27.38;6.70;;;;;;;2.63;100.00;99211.75;4984877;28;20034;-56
2022/03/23 03:16:18;;;;;;;33.55;7.57;;;;;;;2.42;100.00;99221.81;4981189;28;20580;-58
2022/03/23 03:18:43;;;;;;;38.22;9.27;;;;;;;1.68;100.00;99219.16;4979917;28;20121;-56
2022/03/23 03:21:10;;;;;;;31.48;6.35;;;;;;;2.91;100.00;99221.47;4987419;28;20038;-54
2022/03/23 03:23:38;;;;;;;35.80;8.25;;;;;;;2.85;100.00;99214.53;4983231;28;20025;-55
2022/03/23 03:26:05;;;;;;;35.88;8.68;;;;;;;2.49;100.00;99209.00;4980506;28;20121;-54
2022/03/23 03:28:35;;;;;;;40.50;9.65;;;;;;;2.18;100.00;99217.22;4982998;28;20029;-57
2022/03/23 03:31:03;;;;;;;39.22;10.00;;;;;;;1.90;100.00;99216.88;4981027;28;20058;-55
2022/03/23 03:33:29;;;;;;;33.00;7.80;;;;;;;1.94;100.00;99218.66;4983581;28;20030;-55
2022/03/23 03:35:54;;;;;;;40.90;7.32;;;;;;;3.30;100.00;99220.06;4984047;28;20121;-56
2022/03/23 03:38:19;;;;;;;28.38;6.25;;;;;;;3.09;100.00;99214.75;4981346;28;20022;-54
2022/03/23 03:40:45;;;;;;;30.50;7.43;;;;;;;3.27;100.00;99220.88;4985172;28;20554;-55
2022/03/23 03:43:11;;;;;;;26.60;7.28;;;;;;;2.47;100.00;99210.69;4977347;28;20110;-55
2022/03/23 03:45:36;;;;;;;40.72;10.80;;;;;;;1.61;100.00;99214.75;4983481;28;20034;-55
2022/03/23 03:48:02;;;;;;;40.35;10.23;;;;;;;1.46;100.00;99209.41;4981164;28;20019;-57
2022/03/23 03:50:27;;;;;;;46.20;10.55;;;;;;;1.53;100.00;99212.09;4982723;28;20038;-56
2022/03/23 03:52:52;;;;;;;37.05;10.13;;;;;;;1.35;100.00;99214.38;4984401;28;20065;-55
2022/03/23 03:55:17;;;;;;;28.58;7.20;;;;;;;1.73;100.00;99216.66;4981525;28;20057;-54
2022/03/23 03:57:43;;;;;;;40.88;8.77;;;;;;;1.59;100.00;99220.75;4982085;28;20041;-54
2022/03/23 04:00:09;;;;;;;40.00;9.25;;;;;;;1.83;100.00;99221.06;4982419;28;20148;-55
2022/03/23 04:02:34;;;;;;;37.20;9.40;;;;;;;1.24;100.00;99219.34;4981128;28;20029;-58
2022/03/23 04:05:00;;;;;;;42.90;7.57;;;;;;;2.67;100.00;99218.66;4983213;28;20060;-54
2022/03/23 04:07:25;;;;;;;37.70;10.68;;;;;;;1.83;100.00;99221.06;4982130;28;20078;-55
2022/03/23 04:09:50;;;;;;;34.92;8.07;;;;;;;2.57;100.00;99221.97;4980685;28;20025;-55
2022/03/23 04:12:16;;;;;;;35.95;8.88;;;;;;;2.44;100.00;99215.81;4980918;28;20047;-58
2022/03/23 04:14:41;;;;;;;39.50;9.50;;;;;;;1.77;100.00;99221.00;4979662;28;20113;-55
2022/03/23 04:17:06;;;;;;;32.22;6.40;;;;;;;2.59;100.00;99225.44;4981540;28;20038;-57
2022/03/23 04:19:32;;;;;;;37.35;10.48;;;;;;;2.39;100.00;99227.78;4981011;28;20027;-55
2022/03/23 04:21:57;;;;;;;37.88;10.43;;;;;;;1.05;100.00;99225.00;4981964;28;20920;-56
2022/03/23 04:24:23;;;;;;;36.67;9.45;;;;;;;1.33;100.00;99221.22;4982270;28;20029;-54
2022/03/23 04:26:48;;;;;;;24.17;6.07;;;;;;;2.53;100.00;99219.34;4984450;28;20093;-55
2022/03/23 04:29:14;;;;;;;31.80;6.65;;;;;;;3.32;100.00;99223.53;4983859;28;20027;-55
2022/03/23 04:31:39;;;;;;;25.95;5.75;;;;;;;3.25;100.00;99227.75;4984453;28;20042;-55
2022/03/23 04:34:05;;;;;;;28.50;7.50;;;;;;;3.06;100.00;99219.00;4982376;28;20030;-55
2022/03/23 04:36:31;;;;;;;33.47;9.73;;;;;;;1.46;100.00;99222.25;4980649;28;20149;-55
2022/03/23 04:38:56;;;;;;;45.85;10.85;;;;;;;1.55;100.00;99230.13;4984704;28;20635;-55
2022/03/23 04:41:21;;;;;;;32.22;8.15;;;;;;;2.11;100.00;99232.63;4980637;28;20631;-55
2022/03/23 04:43:47;;;;;;;29.23;6.72;;;;;;;2.78;100.00;99231.66;4985368;28;20057;-56
2022/03/23 04:46:13;;;;;;;38.38;9.88;;;;;;;1.69;100.00;99238.00;4976822;28;20128;-56
2022/03/23 04:48:38;;;;;;;26.45;5.60;;;;;;;3.33;100.00;99240.69;4975492;28;20507;-56
2022/03/23 04:51:05;;;;;;;28.67;5.90;;;;;;;3.56;100.00;99235.72;4977971;28;20042;-55
2022/03/23 04:53:30;;;;;;;36.28;10.23;;;;;;;2.01;100.00;99235.91;4981328;28;20034;-54
2022/03/23 04:55:55;;;;;;;34.70;9.15;;;;;;;1.47;100.00;99247.13;4980355;28;20038;-56
2022/03/23 04:58:21;;;;;;;30.45;6.78;;;;;;;3.07;100.00;99243.97;4983989;28;20178;-56
2022/03/23 05:00:46;;;;;;;36.25;7.93;;;;;;;1.97;100.00;99247.00;4983849;28;20100;-55
2022/03/23 05:03:13;;;;;;;38.97;9.75;;;;;;;1.61;100.00;99245.63;4982494;28;20045;-56
2022/03/23 05:05:39;;;;;;;39.55;8.75;;;;;;;2.50;100.00;99251.97;4980842;28;20050;-54
2022/03/23 05:08:05;;;;;;;26.27;7.05;;;;;;;1.91;100.00;99240.06;4981160;28;20030;-55
2022/03/23 05:10:30;;;;;;;41.92;10.13;;;;;;;1.51;100.00;99243.78;4983735;28;20057;-55
2022/03/23 05:12:55;;;;;;;24.13;5.90;;;;;;;2.12;100.00;99247.19;4983896;28;20034;-54
2022/03/23 05:15:21;;;;;;;31.80;7.13;;;;;;;2.37;100.00;99249.22;4978772;28;20117;-54
2022/03/23 05:17:46;;;;;;;34.22;8.40;;;;;;;2.48;100.00;99248.50;4977650;28;20089;-55
2022/03/23 05:20:14;;;;;;;28.75;7.20;;;;;;;2.03;100.00;99253.94;4979184;28;20030;-55
2022/03/23 05:22:39;;;;;;;27.45;7.22;;;;;;;2.02;100.00;99247.94;4981785;28;20022;-55
2022/03/23 05:25:05;;;;;;;26.50;6.88;;;;;;;1.32;100.00;99251.19;4980209;28;20022;-55
2022/03/23 05:27:35;;;;;;;28.52;6.63;;;;;;;2.00;100.00;99259.91;4981549;28;20485;-58
2022/03/23 05:30:01;;;;;;;29.00;8.40;;;;;;;1.99;100.00;99253.03;4978933;28;20053;-56
2022/03/23 05:32:26;;;;;;;27.15;8.60;;;;;;;1.59;100.00;99257.59;4981870;28;20493;-55
2022/03/23 05:34:52;;;;;;;45.60;10.18;;;;;;;2.01;100.00;99261.63;4982921;28;20053;-55
2022/03/23 05:37:18;;;;;;;31.60;8.88;;;;;;;2.14;100.00;99252.38;4977924;28;20043;-56
2022/03/23 05:39:44;;;;;;;28.33;8.85;;;;;;;2.73;100.00;99256.50;4978583;28;20057;-55
2022/03/23 05:42:10;;;;;;;27.02;9.50;;;;;;;2.35;100.00;99256.91;4976845;28;20096;-55
2022/03/23 05:44:35;;;;;;;32.30;9.35;;;;;;;3.04;100.00;99267.13;4979698;28;20037;-55
2022/03/23 05:47:01;;;;;;;37.75;9.77;;;;;;;3.24;100.00;99260.44;4980241;28;20034;-56
2022/03/23 05:49:27;;;;;;;31.95;9.00;;;;;;;3.81;100.00;99262.56;4982222;28;20061;-56
2022/03/23 05:51:53;;;;;;;33.00;9.27;;;;;;;4.20;100.00;99258.47;4984592;28;20038;-55
2022/03/23 05:54:19;;;;;;;28.02;9.07;;;;;;;4.53;100.00;99264.66;4978096;28;20084;-55
2022/03/23 05:56:44;;;;;;;32.90;9.57;;;;;;;4.13;100.00;99261.88;4977888;28;20129;-55
2022/03/23 05:59:10;;;;;;;35.92;11.10;;;;;;;4.88;95.01;99266.47;4983488;28;20148;-55
2022/03/23 06:01:36;;;;;;;42.53;13.00;;;;;;;3.93;100.00;99270.38;4976616;28;20054;-56
2022/03/23 06:04:01;;;;;;;38.10;11.80;;;;;;;4.98;90.53;99268.22;4978830;28;20052;-57
2022/03/23 06:06:26;;;;;;;28.33;10.10;;;;;;;5.69;87.98;99265.66;4980370;28;20887;-57
2022/03/23 06:08:52;;;;;;;31.52;11.30;;;;;;;5.77;79.93;99266.50;4980066;28;20085;-55
2022/03/23 06:11:17;;;;;;;32.70;10.63;;;;;;;5.49;82.48;99269.13;4979303;28;20034;-57
2022/03/23 06:13:44;;;;;;;32.55;10.07;;;;;;;6.44;80.30;99272.44;4983454;28;20053;-56
2022/03/23 06:16:11;;;;;;;38.53;10.35;;;;;;;7.67;70.23;99269.91;4978564;28;20030;-57
2022/03/23 06:18:36;;;;;;;33.97;9.30;;;;;;;6.80;69.35;99266.22;4979271;28;20026;-56
2022/03/23 06:21:03;;;;;;;28.58;8.77;;;;;;;7.11;67.84;99266.88;4982209;28;20046;-56
2022/03/23 06:23:28;;;;;;;27.70;8.80;;;;;;;7.46;64.79;99278.75;4981257;28;20839;-57
2022/03/23 06:25:54;;;;;;;35.05;9.95;;;;;;;7.66;62.32;99275.09;4976900;28;20141;-57
2022/03/23 06:28:19;;;;;;;33.97;10.15;;;;;;;7.59;61.15;99273.44;4980138;28;20026;-55
2022/03/23 06:30:44;;;;;;;25.80;9.65;;;;;;;9.75;55.85;99276.78;4981704;28;21128;-57
2022/03/23 06:33:10;;;;;;;36.08;9.30;;;;;;;10.73;53.88;99276.66;4980188;28;20037;-56
2022/03/23 06:35:36;;;;;;;27.20;9.55;;;;;;;9.99;53.65;99276.34;4979258;28;20039;-56
2022/03/23 06:38:01;;;;;;;27.25;9.15;;;;;;;11.04;50.38;99283.84;4982110;28;20026;-56
2022/03/23 06:40:27;;;;;;;29.83;10.05;;;;;;;9.94;52.59;99285.97;4980535;28;20038;-56
2022/03/23 06:42:52;;;;;;;27.30;9.73;;;;;;;9.95;53.22;99289.47;4982564;28;20021;-57
2022/03/23 06:45:17;;;;;;;40.28;11.55;;;;;;;11.25;50.37;99283.34;4982783;28;20034;-55
2022/03/23 06:47:43;;;;;;;26.38;10.32;;;;;;;12.29;46.72;99289.47;4979279;28;20109;-54
2022/03/23 06:50:08;;;;;;;30.40;10.93;;;;;;;11.54;46.53;99297.47;4980624;28;20033;-58
2022/03/23 06:52:34;;;;;;;33.08;10.88;;;;;;;14.37;42.25;99286.47;4983314;28;20089;-56
2022/03/23 06:55:00;;;;;;;31.50;10.95;;;;;;;15.21;40.84;99292.09;4984186;28;20027;-55
2022/03/23 06:57:26;;;;;;;31.58;11.60;;;;;;;15.40;39.06;99290.47;4980385;28;20046;-54
2022/03/23 06:59:51;;;;;;;27.00;10.23;;;;;;;15.45;38.43;99292.88;4978830;28;20031;-56
2022/03/23 07:02:16;;;;;;;24.73;10.10;;;;;;;16.22;37.75;99283.59;4980369;28;20406;-54
2022/03/23 07:04:42;;;;;;;32.83;10.52;;;;;;;16.87;35.90;99287.72;4981919;28;20684;-55
2022/03/23 07:07:07;;;;;;;22.75;10.50;;;;;;;16.49;35.78;99286.78;4982992;28;20524;-56
2022/03/23 07:09:32;;;;;;;24.77;10.45;;;;;;;17.81;34.72;99282.31;4986858;28;20037;-55
2022/03/23 07:11:59;;;;;;;27.83;10.27;;;;;;;19.88;31.89;99285.31;4985468;28;20106;-56
2022/03/23 07:14:27;;;;;;;24.17;10.13;;;;;;;19.11;32.31;99279.91;4983926;28;20041;-56
2022/03/23 07:16:52;;;;;;;27.10;10.38;;;;;;;18.12;33.06;99284.28;4982150;28;20045;-56
2022/03/23 07:19:17;;;;;;;19.85;10.43;;;;;;;19.84;31.34;99285.47;4980506;28;20034;-57
2022/03/23 07:21:43;;;;;;;22.88;10.60;;;;;;;19.80;31.24;99277.81;4981408;28;20046;-56
2022/03/23 07:24:08;;;;;;;19.90;10.13;;;;;;;18.63;31.71;99290.41;4984984;28;20083;-56
2022/03/23 07:26:33;;;;;;;19.67;10.32;;;;;;;19.15;31.84;99288.53;4983018;28;20041;-57
2022/03/23 07:29:01;;;;;;;20.48;10.02;;;;;;;20.08;30.41;99292.06;4985034;28;20503;-56
2022/03/23 07:31:26;;;;;;;19.27;10.80;;;;;;;22.33;28.78;99284.78;4985961;28;20456;-56
2022/03/23 07:33:52;;;;;;;20.95;10.20;;;;;;;21.16;29.26;99291.63;4982286;28;20665;-56
2022/03/23 07:36:17;;;;;;;18.75;10.65;;;;;;;20.27;29.54;99292.66;4983866;28;20405;-58
2022/03/23 07:38:42;;;;;;;21.10;10.43;;;;;;;20.75;29.76;99288.00;4983737;28;20098;-56
2022/03/23 07:41:08;;;;;;;18.48;10.45;;;;;;;20.42;29.59;99291.75;4982001;28;20112;-55
2022/03/23 07:43:33;;;;;;;20.88;10.63;;;;;;;20.58;29.46;99283.69;4985351;28;20037;-56
2022/03/23 07:45:59;;;;;;;22.25;9.63;;;;;;;20.31;29.04;99286.25;4981906;28;20918;-56
2022/03/23 07:48:25;;;;;;;20.35;10.40;;;;;;;21.02;28.97;99286.34;4983398;28;20023;-56
2022/03/23 07:50:51;;;;;;;21.02;10.30;;;;;;;21.11;29.08;99285.75;4982491;28;20045;-56
2022/03/23 07:53:17;;;;;;;17.52;9.88;;;;;;;22.28;27.84;99286.03;4982471;28;20299;-55
2022/03/23 07:55:42;;;;;;;20.02;10.07;;;;;;;22.68;27.78;99288.56;4979844;28;21036;-56
2022/03/23 07:58:08;;;;;;;25.52;10.65;;;;;;;23.20;27.36;99284.88;4978791;28;20038;-56
2022/03/23 08:00:33;;;;;;;20.38;10.07;;;;;;;23.20;27.00;99279.53;4980399;28;20046;-56
2022/03/23 08:02:58;;;;;;;19.55;10.23;;;;;;;22.96;27.62;99281.31;4982521;28;20852;-56
2022/03/23 08:05:25;;;;;;;18.13;10.23;;;;;;;22.37;27.70;99279.22;4980301;28;20054;-54
2022/03/23 08:07:50;;;;;;;20.88;9.93;;;;;;;22.90;27.20;99279.91;4983829;28;20019;-55
2022/03/23 08:10:15;;;;;;;25.77;10.20;;;;;;;23.04;27.38;99284.28;4989027;28;20033;-54
2022/03/23 08:12:41;;;;;;;19.65;10.00;;;;;;;23.89;26.08;99283.41;4982834;28;20093;-57
2022/03/23 08:15:07;;;;;;;21.27;10.18;;;;;;;23.07;26.73;99281.41;4982713;28;20069;-56
2022/03/23 08:17:32;;;;;;;21.65;10.15;;;;;;;24.24;25.61;99284.22;4978948;28;20043;-57
2022/03/23 08:22:41;;;;;;;16.65;9.93;;;;;;;23.22;26.16;99272.28;4987472;28;20092;-57
2022/03/23 08:25:07;;;;;;;23.13;10.50;;;;;;;24.36;25.55;99279.75;4981815;28;20034;-56
2022/03/23 08:27:32;;;;;;;21.45;11.23;;;;;;;23.56;26.52;99283.09;4981486;28;20022;-56
2022/03/23 08:29:58;;;;;;;22.30;10.27;;;;;;;24.84;25.11;99280.53;4981762;28;20493;-57
2022/03/23 08:32:23;;;;;;;20.63;10.75;;;;;;;24.94;25.26;99276.13;4983635;28;20035;-55
2022/03/23 08:34:51;;;;;;;19.58;11.00;;;;;;;26.14;24.27;99280.50;4982937;28;20113;-55
2022/03/23 08:37:17;;;;;;;24.33;10.32;;;;;;;26.25;24.17;99276.91;4982163;28;20046;-58
2022/03/23 08:39:42;;;;;;;23.25;10.45;;;;;;;26.25;23.52;99276.06;4982440;28;20027;-55
2022/03/23 08:42:07;;;;;;;17.17;10.43;;;;;;;25.37;24.13;99278.03;4978730;28;20042;-56
2022/03/23 08:44:33;;;;;;;18.33;10.27;;;;;;;23.35;26.32;99276.72;4984972;28;20030;-56
2022/03/23 08:46:59;;;;;;;17.65;10.15;;;;;;;23.26;26.02;99267.59;4981535;28;20422;-57
2022/03/23 08:49:25;;;;;;;18.55;10.38;;;;;;;23.86;25.32;99271.16;4978304;28;20038;-55
2022/03/23 08:51:50;;;;;;;16.65;9.75;;;;;;;27.06;22.06;99260.91;4981667;28;20103;-57
2022/03/23 08:54:15;;;;;;;16.08;9.45;;;;;;;27.49;21.76;99269.59;4985077;28;20514;-57
2022/03/23 08:56:41;;;;;;;20.92;9.82;;;;;;;24.50;24.53;99268.00;4978889;28;20046;-57
2022/03/23 08:59:06;;;;;;;20.00;10.07;;;;;;;26.91;22.62;99265.81;4977066;28;20042;-56
2022/03/23 09:01:31;;;;;;;15.10;9.38;;;;;;;28.32;21.90;99258.41;4979107;28;20046;-57
2022/03/23 09:04:01;;;;;;;13.97;8.47;;;;;;;27.99;22.49;99264.13;4981504;28;20037;-57
2022/03/23 09:06:26;;;;;;;15.60;8.48;;;;;;;25.01;22.01;99263.97;4978992;28;20324;-56
2022/03/23 09:08:51;;;;;;;15.98;9.02;;;;;;;25.29;22.24;99267.09;4982019;28;20423;-56
2022/03/23 09:11:17;;;;;;;14.77;8.63;;;;;;;23.14;22.58;99264.03;4981340;28;20092;-57
2022/03/23 09:13:44;;;;;;;22.60;8.93;;;;;;;23.64;23.52;99259.44;4984343;28;20030;-58
2022/03/23 09:16:09;;;;;;;16.92;8.82;;;;;;;23.08;23.82;99264.47;4982679;28;20046;-56
2022/03/23 09:18:35;;;;;;;20.55;9.18;;;;;;;24.60;22.46;99266.31;4981689;28;20366;-56
2022/03/23 09:21:01;;;;;;;18.23;9.32;;;;;;;24.25;23.59;99264.56;4985413;28;20046;-56
2022/03/23 09:23:26;;;;;;;18.45;9.57;;;;;;;22.64;25.36;99263.16;4978094;28;20034;-56
2022/03/23 09:25:52;;;;;;;19.98;9.52;;;;;;;24.01;23.38;99259.31;4980153;28;20774;-55
2022/03/23 09:28:18;;;;;;;18.75;9.50;;;;;;;24.76;22.84;99260.63;4981753;28;20022;-56
2022/03/23 09:30:43;;;;;;;18.15;9.75;;;;;;;26.28;21.17;99262.41;4984176;28;20034;-57
2022/03/23 09:33:09;;;;;;;20.77;9.05;;;;;;;25.98;22.36;99264.06;4982294;28;20057;-56
2022/03/23 09:35:34;;;;;;;18.48;8.68;;;;;;;26.08;22.50;99258.78;4975932;28;20040;-55
2022/03/23 09:38:03;;;;;;;17.65;9.40;;;;;;;25.62;23.12;99259.94;4981691;28;20109;-56
2022/03/23 09:40:31;;;;;;;17.45;8.20;;;;;;;25.86;24.47;99255.25;4982500;28;20073;-57
2022/03/23 09:43:02;;;;;;;17.05;9.05;;;;;;;24.30;24.02;99248.22;4976554;28;20247;-55
2022/03/23 09:47:56;;;;;;;18.10;9.30;;;;;;;27.37;21.27;99243.94;4973675;28;20319;-58
2022/03/23 09:50:22;;;;;;;18.80;9.35;;;;;;;24.98;23.03;99242.91;4982352;28;20026;-57
2022/03/23 09:52:47;;;;;;;15.20;7.80;;;;;;;26.94;22.52;99240.59;4981342;28;20050;-57
2022/03/23 09:55:13;;;;;;;14.70;8.40;;;;;;;26.37;22.74;99256.25;4981167;28;20034;-58
2022/03/23 09:57:38;;;;;;;15.05;8.32;;;;;;;25.36;22.95;99245.13;4978760;28;20100;-58
2022/03/23 10:00:08;;;;;;;17.85;9.18;;;;;;;26.26;22.30;99241.13;4979624;28;20729;-58
2022/03/23 10:02:40;;;;;;;14.10;8.38;;;;;;;23.83;23.30;99234.09;4984041;28;20104;-56
2022/03/23 10:05:20;;;;;;;17.63;8.60;;;;;;;26.38;21.51;99239.25;4978595;28;20081;-57
2022/03/23 10:08:06;;;;;;;16.33;7.93;;;;;;;24.58;23.33;99230.09;4981796;28;20427;-57
2022/03/23 10:11:08;;;;;;;15.55;7.80;;;;;;;24.51;26.09;99229.69;4983003;28;20464;-57
2022/03/23 10:14:11;;;;;;;17.73;8.70;;;;;;;24.75;22.70;99226.91;4980032;28;20049;-57
2022/03/23 10:17:14;;;;;;;16.13;8.30;;;;;;;25.36;23.82;99228.25;4978851;28;20054;-59
2022/03/23 10:19:43;;;;;;;17.85;8.73;;;;;;;22.35;24.09;99223.53;4981200;28;20026;-58
2022/03/23 10:22:11;;;;;;;16.30;8.88;;;;;;;24.30;23.45;99210.91;4975143;28;20037;-57
2022/03/23 10:24:37;;;;;;;16.60;8.30;;;;;;;26.13;21.67;99213.78;4979508;28;20388;-58
2022/03/23 10:27:10;;;;;;;22.02;8.30;;;;;;;26.96;24.54;99211.84;4979230;28;20591;-57
2022/03/23 10:29:51;;;;;;;20.50;7.15;;;;;;;25.93;24.20;99213.69;4981368;28;20025;-55
2022/03/23 10:32:18;;;;;;;15.77;8.27;;;;;;;25.46;22.61;99212.31;4981359;28;20138;-55
2022/03/23 10:34:45;;;;;;;20.88;9.13;;;;;;;22.85;24.33;99215.56;4978857;28;20579;-56
2022/03/23 10:37:12;;;;;;;15.93;7.15;;;;;;;24.68;23.89;99215.03;4978559;28;20129;-56
2022/03/23 10:39:38;;;;;;;17.02;8.40;;;;;;;24.46;23.14;99205.19;4982181;28;20187;-56
2022/03/23 10:42:13;;;;;;;14.60;7.10;;;;;;;26.35;23.57;99218.94;4985564;28;20525;-55
2022/03/23 10:44:39;;;;;;;17.05;8.35;;;;;;;21.91;24.66;99211.50;4981161;28;20041;-56
2022/03/23 10:47:05;;;;;;;17.38;8.20;;;;;;;26.43;21.73;99210.28;4984435;28;20050;-54
2022/03/23 10:49:38;;;;;;;16.00;7.90;;;;;;;24.58;22.82;99203.41;4984826;28;20023;-56
2022/03/23 10:52:15;;;;;;;24.00;8.35;;;;;;;24.88;22.42;99205.41;4985905;28;20042;-57
2022/03/23 10:55:01;;;;;;;21.73;9.18;;;;;;;25.29;22.31;99203.03;4987373;28;20085;-55
2022/03/23 10:57:42;;;;;;;18.23;8.30;;;;;;;21.79;24.86;99201.69;4981134;28;20140;-56
2022/03/23 11:00:08;;;;;;;19.73;8.32;;;;;;;23.53;24.00;99191.97;4984342;28;20123;-56
2022/03/23 11:02:45;;;;;;;17.77;8.30;;;;;;;24.16;23.20;99182.66;4985589;28;20480;-55
2022/03/23 11:05:10;;;;;;;18.85;8.60;;;;;;;22.57;23.67;99176.78;4981691;28;20846;-54
2022/03/23 11:07:38;;;;;;;21.40;9.05;;;;;;;23.58;23.37;99177.34;4983418;28;20069;-56
2022/03/23 11:15:46;;;;;;;15.15;7.20;;;;;;;24.11;24.39;99173.31;4984739;28;20045;-56
2022/03/23 11:18:17;;;;;;;16.10;6.63;;;;;;;24.27;25.36;99168.47;4983803;28;20050;-57
2022/03/23 11:20:53;;;;;;;18.88;8.80;;;;;;;22.22;24.69;99169.47;4985196;28;20034;-56
2022/03/23 11:23:30;;;;;;;19.10;8.65;;;;;;;22.75;24.84;99162.16;4986049;28;20033;-55
2022/03/23 11:26:07;;;;;;;17.33;7.55;;;;;;;22.62;26.54;99166.69;4985012;28;20691;-55
2022/03/23 11:28:45;;;;;;;18.60;8.60;;;;;;;23.04;24.93;99157.38;4985558;28;20018;-56
2022/03/23 11:31:15;;;;;;;16.17;6.28;;;;;;;23.91;27.51;99157.06;4992051;28;20044;-56
2022/03/23 11:33:44;;;;;;;24.60;8.38;;;;;;;22.98;25.69;99155.16;5004493;28;20451;-56
2022/03/23 11:36:11;;;;;;;14.07;6.00;;;;;;;22.97;26.89;99149.94;5001762;28;20037;-58
2022/03/23 11:38:37;;;;;;;17.10;8.43;;;;;;;22.08;24.65;99154.53;5003320;28;20037;-57
2022/03/23 11:41:04;;;;;;;18.02;8.10;;;;;;;22.97;24.73;99149.94;5004722;28;20065;-57
2022/03/23 11:43:29;;;;;;;16.33;7.72;;;;;;;23.03;25.44;99145.03;5006341;28;20033;-57